Time;durP1;ratioP1;P1;durP2;ratioP2;P2;SDS_P1;SDS_P2;PMS_P1;PMS_P2;Temp;Humidity;BMP_temperature;BMP_pressure;BME280_temperature;BME280_humidity;BME280_pressure;Samples;Min_cycle;Max_cycle;Signal;HPM_P1;HPM_P2
2023/04/09 00:00:24;;;;;;;7.03;2.63;;;9.50;99.90;;;;;;5111696;28;20252;-75
2023/04/09 00:02:51;;;;;;;4.57;2.73;;;9.50;99.90;;;;;;5111327;28;20236;-74
2023/04/09 00:05:18;;;;;;;2.63;2.07;;;9.40;99.90;;;;;;5110787;28;20674;-78
2023/04/09 00:07:46;;;;;;;3.43;2.83;;;9.40;99.90;;;;;;5111434;28;20244;-75
2023/04/09 00:10:13;;;;;;;7.17;2.83;;;9.40;99.90;;;;;;5110566;28;20751;-75
2023/04/09 00:12:40;;;;;;;3.83;2.63;;;9.20;99.90;;;;;;5111213;28;20277;-79
2023/04/09 00:15:08;;;;;;;4.23;2.80;;;9.30;99.90;;;;;;5110813;28;20229;-78
2023/04/09 00:17:35;;;;;;;2.77;2.33;;;9.40;99.90;;;;;;5110959;28;20277;-75
2023/04/09 00:20:02;;;;;;;3.97;2.00;;;9.50;99.90;;;;;;5111167;28;20236;-81
2023/04/09 00:22:30;;;;;;;3.93;2.30;;;9.40;99.90;;;;;;5111062;28;20205;-75
2023/04/09 00:24:58;;;;;;;4.13;2.33;;;9.60;99.90;;;;;;5111259;28;20207;-73
2023/04/09 00:27:25;;;;;;;4.93;2.23;;;9.60;99.90;;;;;;5111445;28;20232;-79
2023/04/09 00:29:54;;;;;;;2.60;2.40;;;9.50;99.90;;;;;;5111403;28;20319;-81
2023/04/09 00:32:20;;;;;;;3.53;2.30;;;9.40;99.90;;;;;;5110551;28;20637;-79
2023/04/09 00:34:48;;;;;;;2.50;2.20;;;9.50;99.90;;;;;;5111260;28;20245;-81
2023/04/09 00:37:15;;;;;;;2.20;1.87;;;9.50;99.90;;;;;;5110628;28;20205;-79
2023/04/09 00:39:42;;;;;;;3.07;2.67;;;9.40;99.90;;;;;;5110931;28;20610;-81
2023/04/09 00:42:10;;;;;;;2.13;2.03;;;9.30;99.90;;;;;;5110775;28;20232;-76
2023/04/09 00:44:37;;;;;;;2.27;2.07;;;9.30;99.90;;;;;;5114766;28;20228;-76
2023/04/09 00:47:05;;;;;;;2.53;2.10;;;9.40;99.90;;;;;;5114209;28;20262;-80
2023/04/09 00:49:32;;;;;;;2.07;1.80;;;9.40;99.90;;;;;;5114978;28;20236;-81
2023/04/09 00:51:59;;;;;;;3.63;2.83;;;9.40;99.90;;;;;;5114572;28;20243;-80
2023/04/09 00:54:25;;;;;;;4.33;2.07;;;9.30;99.90;;;;;;5114985;28;20280;-77
2023/04/09 00:56:53;;;;;;;3.27;2.23;;;9.30;99.90;;;;;;5114863;28;20228;-80
2023/04/09 00:59:21;;;;;;;2.57;2.37;;;9.20;99.90;;;;;;5114440;28;20200;-80
2023/04/09 01:01:48;;;;;;;4.23;3.13;;;9.00;99.90;;;;;;5114512;28;20240;-75
2023/04/09 01:04:15;;;;;;;3.67;3.30;;;9.10;99.90;;;;;;5114299;28;20686;-76
2023/04/09 01:06:48;;;;;;;3.17;2.87;;;9.10;99.90;;;;;;5114485;28;20205;-76
2023/04/09 01:09:21;;;;;;;3.77;1.90;;;9.10;99.90;;;;;;5113958;28;20260;-76
2023/04/09 01:12:00;;;;;;;3.40;2.93;;;9.20;99.90;;;;;;5114294;28;20244;-76
2023/04/09 01:14:34;;;;;;;2.87;2.23;;;9.20;99.90;;;;;;5114296;28;20226;-73
2023/04/09 01:17:06;;;;;;;5.30;2.07;;;9.20;99.90;;;;;;5113876;28;20655;-76
2023/04/09 01:19:47;;;;;;;4.03;2.43;;;9.10;99.90;;;;;;5114318;28;20582;-80
2023/04/09 01:22:31;;;;;;;4.57;2.60;;;9.00;99.90;;;;;;5113785;28;20305;-79
2023/04/09 01:25:07;;;;;;;3.63;3.23;;;9.00;99.90;;;;;;5113742;28;20259;-79
2023/04/09 01:27:44;;;;;;;3.07;2.77;;;8.80;99.90;;;;;;5113925;28;20251;-80
2023/04/09 01:30:16;;;;;;;4.93;2.67;;;8.80;99.90;;;;;;5113336;28;20320;-80
2023/04/09 01:32:44;;;;;;;3.17;2.53;;;8.80;99.90;;;;;;5113857;28;20212;-80
2023/04/09 01:35:12;;;;;;;6.27;3.20;;;8.90;99.90;;;;;;5113613;28;20668;-80
2023/04/09 01:37:40;;;;;;;2.87;2.43;;;8.80;99.90;;;;;;5114023;28;20228;-75
2023/04/09 01:40:08;;;;;;;5.93;2.77;;;8.70;99.90;;;;;;5113413;28;20293;-80
2023/04/09 01:42:36;;;;;;;4.57;3.60;;;8.60;99.90;;;;;;5113836;28;20236;-75
2023/04/09 01:45:05;;;;;;;4.70;3.27;;;8.50;99.90;;;;;;5112940;28;20229;-75
2023/04/09 01:47:35;;;;;;;3.30;2.97;;;8.60;99.90;;;;;;5113825;28;20240;-76
2023/04/09 01:50:03;;;;;;;5.47;2.50;;;8.40;99.90;;;;;;5113325;28;20232;-76
2023/04/09 01:52:30;;;;;;;6.47;3.07;;;8.40;99.90;;;;;;5113793;28;20235;-79
2023/04/09 01:54:57;;;;;;;5.40;2.50;;;8.50;99.90;;;;;;5113289;28;20719;-72
2023/04/09 01:57:24;;;;;;;7.33;3.20;;;8.50;99.90;;;;;;5113493;28;20201;-75
2023/04/09 01:59:51;;;;;;;4.83;3.00;;;8.30;99.90;;;;;;5113612;28;20204;-72
2023/04/09 02:02:24;;;;;;;5.07;3.03;;;8.40;99.90;;;;;;5113305;28;20254;-74
2023/04/09 02:04:57;;;;;;;5.23;3.50;;;8.20;99.90;;;;;;5113618;28;20232;-74
2023/04/09 02:07:33;;;;;;;2.30;1.83;;;8.20;99.90;;;;;;5113740;28;20233;-76
2023/04/09 02:10:01;;;;;;;5.60;3.00;;;8.30;99.90;;;;;;5112581;28;20224;-75
2023/04/09 02:12:33;;;;;;;2.43;2.17;;;8.40;99.90;;;;;;5113178;28;20546;-74
2023/04/09 02:15:01;;;;;;;2.50;2.30;;;8.40;99.90;;;;;;5112336;28;20703;-74
2023/04/09 02:17:28;;;;;;;4.20;3.00;;;8.30;99.90;;;;;;5113253;28;20209;-74
2023/04/09 02:19:57;;;;;;;2.80;2.60;;;8.30;99.90;;;;;;5113329;28;20297;-73
2023/04/09 02:22:23;;;;;;;2.60;2.20;;;8.30;99.90;;;;;;5113363;28;20208;-74
2023/04/09 02:24:50;;;;;;;2.37;2.17;;;8.20;99.90;;;;;;5113135;28;20228;-74
2023/04/09 02:27:17;;;;;;;3.97;3.00;;;8.20;99.90;;;;;;5112458;28;20252;-74
2023/04/09 02:29:44;;;;;;;5.87;2.60;;;8.20;99.90;;;;;;5112678;28;20282;-73
2023/04/09 02:32:11;;;;;;;3.87;2.00;;;8.20;99.90;;;;;;5112529;28;20201;-78
2023/04/09 02:34:38;;;;;;;1.67;1.57;;;8.30;99.90;;;;;;5112779;28;20241;-73
2023/04/09 02:37:06;;;;;;;4.17;2.53;;;8.30;99.90;;;;;;5112346;28;20667;-75
2023/04/09 02:39:33;;;;;;;2.23;2.03;;;8.20;99.90;;;;;;5112707;28;20559;-78
2023/04/09 02:42:01;;;;;;;3.53;2.67;;;8.10;99.90;;;;;;5112038;28;20570;-74
2023/04/09 02:44:27;;;;;;;2.60;2.40;;;8.20;99.90;;;;;;5112516;28;20287;-74
2023/04/09 02:46:55;;;;;;;3.40;2.60;;;8.20;99.90;;;;;;5113139;28;20240;-72
2023/04/09 02:49:22;;;;;;;3.70;2.50;;;8.10;99.90;;;;;;5112732;28;20239;-73
2023/04/09 02:51:49;;;;;;;3.77;2.07;;;8.10;99.90;;;;;;5112252;28;20251;-74
2023/04/09 02:54:17;;;;;;;2.43;2.23;;;8.20;99.90;;;;;;5111926;28;20692;-75
2023/04/09 02:56:44;;;;;;;3.33;2.73;;;8.20;99.90;;;;;;5111912;28;20240;-73
2023/04/09 02:59:11;;;;;;;3.67;2.20;;;8.10;99.90;;;;;;5111933;28;20205;-75
2023/04/09 03:01:38;;;;;;;2.43;2.00;;;8.10;99.90;;;;;;5112146;28;20699;-74
2023/04/09 03:04:05;;;;;;;2.50;2.30;;;8.10;99.90;;;;;;5111876;28;20197;-75
2023/04/09 03:06:32;;;;;;;2.80;2.10;;;8.10;99.90;;;;;;5111724;28;20248;-75
2023/04/09 03:08:59;;;;;;;1.87;1.77;;;8.10;99.90;;;;;;5111781;28;20232;-73
2023/04/09 03:11:27;;;;;;;2.20;1.60;;;8.10;99.90;;;;;;5111737;28;20296;-74
2023/04/09 03:13:54;;;;;;;4.57;1.90;;;8.10;99.90;;;;;;5112387;28;20274;-77
2023/04/09 03:16:21;;;;;;;2.63;2.07;;;8.20;99.90;;;;;;5111972;28;20197;-75
2023/04/09 03:18:48;;;;;;;2.13;1.80;;;8.10;99.90;;;;;;5111919;28;20232;-75
2023/04/09 03:21:15;;;;;;;1.80;1.53;;;8.10;99.90;;;;;;5111321;28;20201;-75
2023/04/09 03:23:41;;;;;;;2.37;2.17;;;8.20;99.90;;;;;;5112023;28;20246;-75
2023/04/09 03:26:08;;;;;;;3.00;1.67;;;8.10;99.90;;;;;;5111374;28;20209;-76
2023/04/09 03:28:37;;;;;;;1.83;1.47;;;8.10;99.90;;;;;;5111950;28;20242;-74
2023/04/09 03:31:03;;;;;;;2.47;1.80;;;8.10;99.90;;;;;;5111238;28;20320;-73
2023/04/09 03:33:30;;;;;;;2.33;2.07;;;8.00;99.90;;;;;;5111310;28;20237;-75
2023/04/09 03:35:57;;;;;;;3.97;2.50;;;7.90;99.90;;;;;;5111479;28;20236;-72
2023/04/09 03:38:24;;;;;;;3.63;1.97;;;7.80;99.90;;;;;;5111939;28;20240;-75
2023/04/09 03:40:51;;;;;;;2.37;1.97;;;7.70;99.90;;;;;;5111901;28;20232;-75
2023/04/09 03:43:18;;;;;;;3.63;2.37;;;7.70;99.90;;;;;;5111381;28;20239;-74
2023/04/09 03:45:46;;;;;;;2.57;2.37;;;7.70;99.90;;;;;;5111375;28;20258;-71
2023/04/09 03:48:13;;;;;;;4.07;2.37;;;7.80;99.90;;;;;;5111242;28;20262;-72
2023/04/09 03:50:41;;;;;;;2.57;2.20;;;7.80;99.90;;;;;;5111607;28;20329;-72
2023/04/09 03:53:08;;;;;;;2.70;2.07;;;7.70;99.90;;;;;;5111150;28;20228;-73
2023/04/09 03:55:35;;;;;;;4.03;1.77;;;7.80;99.90;;;;;;5111254;28;20236;-73
2023/04/09 03:58:02;;;;;;;2.50;2.03;;;7.80;99.90;;;;;;5110985;28;20239;-74
2023/04/09 04:00:29;;;;;;;2.13;2.00;;;7.60;99.90;;;;;;5109507;28;20235;-71
2023/04/09 04:02:57;;;;;;;2.00;1.90;;;7.50;99.90;;;;;;5110965;28;20258;-74
2023/04/09 04:05:25;;;;;;;5.83;2.93;;;7.30;99.90;;;;;;5111556;28;20590;-74
2023/04/09 04:07:52;;;;;;;2.37;1.73;;;7.20;99.90;;;;;;5111288;28;20576;-73
2023/04/09 04:10:20;;;;;;;3.00;1.70;;;7.20;99.90;;;;;;5110340;28;20739;-74
2023/04/09 04:12:47;;;;;;;1.43;1.33;;;7.30;99.90;;;;;;5110977;28;20610;-71
2023/04/09 04:15:14;;;;;;;2.37;2.00;;;7.10;99.90;;;;;;5110402;28;20244;-73
2023/04/09 04:17:41;;;;;;;5.43;2.40;;;7.10;99.90;;;;;;5112089;28;20236;-71
2023/04/09 04:20:11;;;;;;;2.53;2.20;;;7.10;99.90;;;;;;5115098;28;20284;-73
2023/04/09 04:22:38;;;;;;;2.90;1.90;;;7.00;99.90;;;;;;5115071;28;20201;-74
2023/04/09 04:25:05;;;;;;;3.53;2.20;;;7.00;99.90;;;;;;5114752;28;20224;-72
2023/04/09 04:27:32;;;;;;;2.23;2.03;;;6.90;99.90;;;;;;5115137;28;20240;-71
2023/04/09 04:30:00;;;;;;;3.87;2.43;;;6.90;99.90;;;;;;5114849;28;20237;-71
2023/04/09 04:32:28;;;;;;;2.57;2.10;;;7.00;99.90;;;;;;5115237;28;20209;-73
2023/04/09 04:34:55;;;;;;;2.40;2.03;;;7.00;99.90;;;;;;5115147;28;20577;-73
2023/04/09 04:37:23;;;;;;;1.97;1.73;;;7.10;99.90;;;;;;5115108;28;20202;-78
2023/04/09 04:39:50;;;;;;;1.90;1.80;;;7.10;99.90;;;;;;5114648;28;20201;-73
2023/04/09 04:42:17;;;;;;;4.70;1.93;;;7.10;99.90;;;;;;5114478;28;20650;-78
2023/04/09 04:44:44;;;;;;;3.63;1.80;;;7.10;99.90;;;;;;5114860;28;20244;-74
2023/04/09 04:47:11;;;;;;;2.07;1.87;;;7.20;99.90;;;;;;5114613;28;20237;-72
2023/04/09 04:49:38;;;;;;;2.93;2.07;;;7.00;99.90;;;;;;5114584;28;20679;-73
2023/04/09 04:52:06;;;;;;;4.20;2.10;;;7.00;99.90;;;;;;5114209;28;20621;-69
2023/04/09 04:54:35;;;;;;;2.63;1.80;;;7.00;99.90;;;;;;5109266;28;20300;-74
2023/04/09 04:57:02;;;;;;;1.90;1.80;;;7.10;99.90;;;;;;5093724;28;20637;-74
2023/04/09 04:59:29;;;;;;;2.60;1.93;;;7.00;99.90;;;;;;5093673;28;20241;-72
2023/04/09 05:01:56;;;;;;;2.70;2.13;;;7.00;99.90;;;;;;5094231;28;20205;-71
2023/04/09 05:04:23;;;;;;;2.13;2.03;;;7.00;99.90;;;;;;5093853;28;20241;-72
2023/04/09 05:06:50;;;;;;;3.27;3.07;;;7.10;99.90;;;;;;5099941;27;20240;-72
2023/04/09 05:09:17;;;;;;;2.43;2.10;;;7.00;99.90;;;;;;5124782;27;21015;-72
2023/04/09 05:11:45;;;;;;;2.30;1.50;;;7.00;99.90;;;;;;5112917;28;20263;-71
2023/04/09 05:14:12;;;;;;;2.23;1.63;;;6.90;99.90;;;;;;5128546;28;20218;-70
2023/04/09 05:16:39;;;;;;;2.40;1.97;;;6.80;99.90;;;;;;5129909;28;20258;-71
2023/04/09 05:19:06;;;;;;;2.60;2.37;;;6.80;99.90;;;;;;5114739;28;20232;-70
2023/04/09 05:21:33;;;;;;;3.20;1.60;;;6.70;99.90;;;;;;5111540;28;20247;-69
2023/04/09 05:24:00;;;;;;;3.03;2.30;;;6.70;99.90;;;;;;5111738;28;20228;-70
2023/04/09 05:26:27;;;;;;;4.53;3.43;;;6.60;99.90;;;;;;5112676;28;20208;-71
2023/04/09 05:28:55;;;;;;;2.40;1.83;;;6.60;99.90;;;;;;5112706;28;20289;-73
2023/04/09 05:31:23;;;;;;;1.73;1.53;;;6.60;99.90;;;;;;5113170;28;20260;-71
2023/04/09 05:33:51;;;;;;;1.97;1.43;;;6.50;99.90;;;;;;5112654;28;20258;-74
2023/04/09 05:36:19;;;;;;;5.23;1.67;;;6.60;99.90;;;;;;5111790;28;20204;-71
2023/04/09 05:38:47;;;;;;;1.87;1.70;;;6.50;99.90;;;;;;5112584;28;20250;-73
2023/04/09 05:41:14;;;;;;;3.43;2.00;;;6.50;99.90;;;;;;5112173;28;20236;-72
2023/04/09 05:43:41;;;;;;;1.90;1.60;;;6.60;99.90;;;;;;5112297;28;20205;-71
2023/04/09 05:46:11;;;;;;;1.77;1.67;;;6.60;99.90;;;;;;5112327;28;20246;-74
2023/04/09 05:48:38;;;;;;;2.60;1.70;;;6.70;99.90;;;;;;5112485;28;20200;-75
2023/04/09 05:51:05;;;;;;;2.33;1.73;;;6.80;99.90;;;;;;5111833;28;20259;-74
2023/04/09 05:53:32;;;;;;;2.27;1.90;;;6.90;99.90;;;;;;5112332;28;20748;-71
2023/04/09 05:55:59;;;;;;;4.30;1.80;;;7.00;99.90;;;;;;5111894;28;20236;-71
2023/04/09 05:58:28;;;;;;;1.90;1.47;;;7.10;99.90;;;;;;5112395;28;20200;-73
2023/04/09 06:00:55;;;;;;;1.50;1.40;;;7.20;99.90;;;;;;5112690;28;20248;-72
2023/04/09 06:03:23;;;;;;;3.57;1.90;;;7.30;99.90;;;;;;5112344;28;20204;-71
2023/04/09 06:05:50;;;;;;;1.83;1.50;;;7.50;99.90;;;;;;5111947;28;20204;-71
2023/04/09 06:08:18;;;;;;;2.13;1.60;;;7.50;99.90;;;;;;5111848;28;20241;-73
2023/04/09 06:10:45;;;;;;;2.07;1.67;;;7.60;99.90;;;;;;5072214;28;1142117;-74
2023/04/09 06:13:12;;;;;;;2.20;1.83;;;7.80;99.90;;;;;;5112514;28;20205;-71
2023/04/09 06:15:39;;;;;;;2.53;2.33;;;7.90;99.90;;;;;;5113028;28;20271;-71
2023/04/09 06:18:06;;;;;;;3.97;2.17;;;8.10;99.90;;;;;;5112252;28;20200;-72
2023/04/09 06:20:36;;;;;;;2.40;2.20;;;8.20;99.90;;;;;;5112818;28;20258;-73
2023/04/09 06:23:03;;;;;;;1.90;1.70;;;8.20;99.90;;;;;;5112714;28;20207;-71
2023/04/09 06:25:30;;;;;;;2.30;1.47;;;8.10;99.90;;;;;;5112834;28;20205;-72
2023/04/09 06:27:57;;;;;;;2.13;1.53;;;8.40;99.90;;;;;;5112516;28;20708;-71
2023/04/09 06:30:24;;;;;;;2.30;1.60;;;8.60;99.90;;;;;;5113186;28;20240;-72
2023/04/09 06:32:51;;;;;;;1.90;1.43;;;8.70;99.90;;;;;;5112781;28;20228;-71
2023/04/09 06:35:19;;;;;;;3.03;1.80;;;8.80;99.90;;;;;;5112349;28;20232;-72
2023/04/09 06:37:47;;;;;;;2.10;1.80;;;8.80;99.90;;;;;;5112395;28;20216;-72
2023/04/09 06:40:14;;;;;;;2.77;1.50;;;8.80;99.90;;;;;;5111457;28;20250;-72
2023/04/09 06:42:42;;;;;;;2.60;1.70;;;8.90;99.90;;;;;;5112439;28;20210;-71
2023/04/09 06:45:10;;;;;;;2.00;1.70;;;9.10;99.90;;;;;;5112287;28;20239;-71
2023/04/09 06:47:37;;;;;;;1.57;1.47;;;9.10;99.90;;;;;;5112372;28;20244;-72
2023/04/09 06:50:05;;;;;;;1.97;1.40;;;9.10;99.90;;;;;;5111862;28;20232;-73
2023/04/09 06:52:31;;;;;;;2.30;2.00;;;9.10;99.90;;;;;;5110975;27;20274;-71
2023/04/09 06:55:01;;;;;;;1.60;1.50;;;9.30;99.90;;;;;;5110749;28;20714;-78
2023/04/09 06:57:28;;;;;;;1.93;1.47;;;9.30;99.90;;;;;;5111548;28;20737;-74
2023/04/09 06:59:55;;;;;;;1.63;1.47;;;9.30;99.90;;;;;;5111671;28;20236;-73
2023/04/09 07:02:22;;;;;;;1.37;1.27;;;9.50;99.90;;;;;;5112344;28;20212;-79
2023/04/09 07:04:49;;;;;;;3.00;2.20;;;9.70;99.90;;;;;;5109735;27;20224;-76
2023/04/09 07:07:17;;;;;;;2.63;1.80;;;9.90;99.90;;;;;;5111425;28;20201;-73
2023/04/09 07:09:44;;;;;;;2.10;1.90;;;10.10;99.90;;;;;;5110656;28;20209;-73
2023/04/09 07:12:13;;;;;;;1.67;1.40;;;10.10;99.90;;;;;;5111028;28;20260;-74
2023/04/09 07:14:40;;;;;;;3.10;2.50;;;10.20;99.90;;;;;;5107492;28;20320;-74
2023/04/09 07:17:07;;;;;;;2.20;1.47;;;10.30;99.90;;;;;;5111264;28;20240;-73
2023/04/09 07:19:33;;;;;;;1.73;1.43;;;10.40;99.90;;;;;;5111232;28;20684;-73
2023/04/09 07:22:00;;;;;;;3.90;1.93;;;10.30;99.90;;;;;;5111418;28;20240;-73
2023/04/09 07:24:27;;;;;;;2.93;2.03;;;10.20;99.90;;;;;;5111504;28;20284;-73
2023/04/09 07:26:55;;;;;;;2.20;1.57;;;10.30;99.90;;;;;;5111889;28;20269;-73
2023/04/09 07:29:23;;;;;;;1.50;1.40;;;10.50;99.90;;;;;;5112080;28;20250;-73
2023/04/09 07:31:50;;;;;;;3.30;1.70;;;10.70;99.90;;;;;;5111745;28;20771;-73
2023/04/09 07:34:17;;;;;;;3.23;1.77;;;10.80;99.90;;;;;;5111150;28;20314;-73
2023/04/09 07:36:44;;;;;;;2.40;1.43;;;10.80;99.90;;;;;;5111064;28;20200;-73
2023/04/09 07:39:10;;;;;;;3.47;2.00;;;10.90;99.90;;;;;;5111034;28;20240;-72
2023/04/09 07:41:37;;;;;;;2.10;1.90;;;11.00;99.90;;;;;;5110858;28;20312;-73
2023/04/09 07:44:06;;;;;;;1.47;1.37;;;11.00;99.90;;;;;;5108180;28;20243;-72
2023/04/09 07:46:34;;;;;;;2.33;1.77;;;11.00;99.90;;;;;;5110780;28;20208;-74
2023/04/09 07:49:01;;;;;;;2.40;1.40;;;11.10;99.90;;;;;;5111216;28;20197;-73
2023/04/09 07:51:28;;;;;;;1.37;1.27;;;11.30;99.90;;;;;;5107051;28;20260;-73
2023/04/09 07:53:55;;;;;;;1.33;1.17;;;11.50;99.90;;;;;;5104643;28;20240;-72
2023/04/09 07:56:22;;;;;;;1.70;1.57;;;11.50;99.90;;;;;;5112373;28;20229;-72
2023/04/09 07:58:49;;;;;;;2.37;1.40;;;11.70;99.90;;;;;;5110978;28;20255;-73
2023/04/09 08:01:16;;;;;;;1.50;1.20;;;11.80;99.90;;;;;;5115363;27;20668;-72
2023/04/09 08:03:44;;;;;;;2.03;0.90;;;12.00;99.90;;;;;;5116473;28;20239;-73
2023/04/09 08:06:11;;;;;;;4.47;1.27;;;12.20;99.90;;;;;;5110013;28;20236;-73
2023/04/09 08:08:38;;;;;;;1.10;1.00;;;12.20;99.90;;;;;;5109716;28;20717;-73
2023/04/09 08:11:05;;;;;;;2.30;1.07;;;12.30;99.90;;;;;;5109959;28;20251;-72
2023/04/09 08:13:33;;;;;;;1.30;1.20;;;12.50;99.90;;;;;;5111261;28;20204;-72
2023/04/09 08:16:00;;;;;;;0.80;0.80;;;12.70;99.90;;;;;;5110105;28;20228;-73
2023/04/09 08:18:27;;;;;;;1.58;1.25;;;13.00;99.90;;;;;;5109237;28;20236;-78
2023/04/09 08:20:56;;;;;;;2.47;1.30;;;13.30;99.90;;;;;;5109879;28;20201;-82
2023/04/09 08:23:23;;;;;;;1.35;1.10;;;13.50;99.90;;;;;;5109949;28;20212;-80
2023/04/09 08:25:50;;;;;;;1.33;1.00;;;13.80;99.90;;;;;;5111443;28;20224;-78
2023/04/09 08:28:17;;;;;;;1.75;1.33;;;13.90;99.90;;;;;;5109730;28;20228;-81
2023/04/09 08:30:44;;;;;;;1.27;1.08;;;13.60;99.90;;;;;;5109701;28;20240;-77
2023/04/09 08:33:11;;;;;;;0.70;0.70;;;13.60;99.90;;;;;;5110173;28;20758;-77
2023/04/09 08:35:39;;;;;;;1.50;1.02;;;13.50;99.90;;;;;;5110910;28;20229;-77
2023/04/09 08:38:07;;;;;;;1.95;0.85;;;13.70;99.90;;;;;;5111020;28;20205;-77
2023/04/09 08:40:35;;;;;;;2.30;1.33;;;13.20;99.90;;;;;;5110833;28;20207;-76
2023/04/09 08:43:05;;;;;;;1.65;1.10;;;13.30;99.90;;;;;;5110413;28;20236;-76
2023/04/09 08:45:32;;;;;;;1.25;0.93;;;15.10;99.90;;;;;;5110016;28;20336;-77
2023/04/09 08:47:59;;;;;;;1.58;1.02;;;15.00;99.90;;;;;;5108871;28;20244;-76
2023/04/09 08:50:26;;;;;;;0.80;0.80;;;15.90;99.90;;;;;;5110533;28;20200;-77
2023/04/09 08:52:54;;;;;;;1.42;1.13;;;15.50;99.90;;;;;;5109857;28;20258;-75
2023/04/09 08:55:22;;;;;;;2.35;0.85;;;15.20;99.90;;;;;;5109987;28;20653;-77
2023/04/09 08:57:49;;;;;;;1.40;1.00;;;15.20;99.90;;;;;;5110621;28;20249;-77
2023/04/09 09:00:16;;;;;;;1.00;0.90;;;15.40;99.90;;;;;;5110101;28;20806;-76
2023/04/09 09:03:02;;;;;;;1.10;1.00;;;15.80;99.90;;;;;;5110721;28;20240;-76
2023/04/09 09:05:36;;;;;;;1.05;0.90;;;15.70;99.90;;;;;;5114489;28;20211;-75
2023/04/09 09:08:03;;;;;;;2.03;1.38;;;16.00;99.90;;;;;;5114296;28;20287;-77
2023/04/09 09:10:39;;;;;;;1.92;0.95;;;16.30;99.90;;;;;;5114316;28;20243;-78
2023/04/09 09:13:17;;;;;;;1.65;0.90;;;15.90;99.90;;;;;;5113897;28;20326;-74
2023/04/09 09:15:46;;;;;;;1.77;1.50;;;16.20;99.90;;;;;;5114174;28;20205;-76
2023/04/09 09:18:13;;;;;;;1.33;1.13;;;16.80;99.90;;;;;;5113808;28;20215;-75
2023/04/09 09:20:40;;;;;;;2.45;0.98;;;17.10;99.90;;;;;;5114203;28;20207;-76
2023/04/09 09:23:08;;;;;;;1.20;1.08;;;17.10;99.90;;;;;;5113805;28;20240;-76
2023/04/09 09:25:39;;;;;;;0.95;0.95;;;18.00;99.90;;;;;;5114512;28;20201;-77
2023/04/09 09:28:08;;;;;;;0.80;0.80;;;19.30;99.90;;;;;;5113281;28;20660;-76
2023/04/09 09:30:38;;;;;;;1.58;1.10;;;19.40;99.90;;;;;;5114200;28;20209;-76
2023/04/09 09:33:07;;;;;;;1.45;1.35;;;19.10;99.90;;;;;;5113603;28;20264;-75
2023/04/09 09:35:49;;;;;;;0.68;0.68;;;18.70;99.90;;;;;;5112966;28;20733;-75
2023/04/09 09:38:17;;;;;;;3.70;0.90;;;19.00;99.90;;;;;;5110682;28;20235;-74
2023/04/09 09:40:45;;;;;;;1.13;0.93;;;19.50;99.90;;;;;;5113756;28;20205;-74
2023/04/09 09:43:13;;;;;;;1.83;1.10;;;19.20;99.90;;;;;;5113349;28;20205;-75
2023/04/09 09:45:42;;;;;;;4.65;1.23;;;18.80;99.90;;;;;;5113908;28;20208;-74
2023/04/09 09:48:11;;;;;;;2.17;1.17;;;20.40;99.90;;;;;;5113103;28;20591;-74
2023/04/09 09:50:40;;;;;;;3.10;1.00;;;20.20;99.90;;;;;;5113677;28;20628;-75
2023/04/09 09:53:08;;;;;;;1.33;1.17;;;19.30;99.90;;;;;;5112743;28;20243;-75
2023/04/09 09:55:39;;;;;;;2.10;1.30;;;19.90;99.90;;;;;;5113861;28;20228;-76
2023/04/09 09:58:12;;;;;;;1.05;0.95;;;19.70;99.90;;;;;;5112871;28;20244;-76
2023/04/09 10:00:40;;;;;;;1.20;1.10;;;19.80;99.90;;;;;;5113476;28;20266;-75
2023/04/09 10:03:14;;;;;;;1.02;0.90;;;20.60;99.90;;;;;;5112451;28;20236;-76
2023/04/09 10:05:41;;;;;;;2.20;1.30;;;21.10;99.90;;;;;;5113422;28;20240;-75
2023/04/09 10:08:10;;;;;;;2.63;1.73;;;20.20;99.90;;;;;;5112530;28;20236;-75
2023/04/09 10:10:40;;;;;;;1.20;1.00;;;19.80;99.90;;;;;;5113116;28;20259;-76
2023/04/09 10:13:13;;;;;;;1.00;0.90;;;19.90;99.90;;;;;;5112397;28;20233;-74
2023/04/09 10:15:41;;;;;;;2.13;1.52;;;20.10;99.90;;;;;;5112024;28;20213;-74
2023/04/09 10:18:08;;;;;;;1.65;1.50;;;20.00;99.90;;;;;;5112634;28;20205;-74
2023/04/09 10:20:43;;;;;;;1.48;1.38;;;22.20;99.90;;;;;;5112992;28;20201;-74
2023/04/09 10:23:19;;;;;;;1.27;0.95;;;22.40;99.90;;;;;;5112677;28;20207;-76
2023/04/09 10:25:46;;;;;;;1.35;1.23;;;21.60;99.90;;;;;;5112996;28;20222;-75
2023/04/09 10:28:18;;;;;;;3.95;1.77;;;20.40;99.90;;;;;;5112105;28;20304;-75
2023/04/09 10:30:45;;;;;;;1.23;1.10;;;20.50;99.90;;;;;;5112882;28;20289;-75
2023/04/09 10:33:13;;;;;;;3.20;1.15;;;20.90;99.90;;;;;;5112445;28;20239;-76
2023/04/09 10:35:41;;;;;;;1.60;1.17;;;20.30;99.90;;;;;;5112903;28;20293;-77
2023/04/09 10:38:09;;;;;;;1.88;1.23;;;20.20;99.90;;;;;;5112395;28;20200;-76
2023/04/09 10:40:41;;;;;;;1.45;1.13;;;19.90;99.90;;;;;;5112342;28;20204;-76
2023/04/09 10:43:09;;;;;;;1.23;0.98;;;19.50;99.90;;;;;;5112238;28;20232;-77
2023/04/09 10:45:42;;;;;;;1.00;0.90;;;19.70;99.90;;;;;;5112572;28;20200;-76
2023/04/09 10:48:13;;;;;;;2.58;1.98;;;20.10;99.90;;;;;;5111222;28;20243;-75
2023/04/09 10:50:43;;;;;;;2.72;1.48;;;20.00;99.90;;;;;;5112419;28;20593;-74
2023/04/09 10:53:22;;;;;;;1.55;1.38;;;19.90;99.90;;;;;;5110534;28;20232;-72
2023/04/09 10:55:50;;;;;;;4.22;1.10;;;19.90;99.90;;;;;;5111413;28;20201;-74
2023/04/09 10:58:17;;;;;;;1.52;0.90;;;20.10;99.90;;;;;;5111976;28;20204;-74
2023/04/09 11:00:46;;;;;;;1.00;0.95;;;20.40;99.90;;;;;;5112154;28;20316;-75
2023/04/09 11:03:24;;;;;;;2.35;1.10;;;20.30;99.90;;;;;;5111577;28;20240;-75
2023/04/09 11:05:55;;;;;;;1.00;0.80;;;20.30;99.90;;;;;;5112319;28;20351;-75
2023/04/09 11:08:22;;;;;;;2.90;1.13;;;20.20;99.90;;;;;;5112241;28;20223;-75
2023/04/09 11:10:50;;;;;;;1.65;1.10;;;20.00;99.90;;;;;;5111850;28;20219;-74
2023/04/09 11:13:18;;;;;;;1.65;1.48;;;19.90;99.90;;;;;;5111411;28;20711;-74
2023/04/09 11:15:47;;;;;;;1.98;0.93;;;20.10;99.90;;;;;;5111737;28;20707;-73
2023/04/09 11:18:21;;;;;;;1.40;0.90;;;20.30;99.90;;;;;;5111245;28;20285;-75
2023/04/09 11:20:48;;;;;;;1.52;1.08;;;20.40;99.90;;;;;;5111934;28;20206;-75
2023/04/09 11:23:16;;;;;;;2.13;1.05;;;19.80;99.90;;;;;;5111461;28;20240;-74
2023/04/09 11:25:43;;;;;;;1.30;1.20;;;20.20;99.90;;;;;;5111683;28;20247;-74
2023/04/09 11:28:10;;;;;;;1.30;1.20;;;20.50;99.90;;;;;;5110894;28;20212;-74
2023/04/09 11:30:37;;;;;;;1.38;1.27;;;20.30;99.90;;;;;;5111435;28;20289;-76
2023/04/09 11:33:07;;;;;;;2.45;1.00;;;20.60;99.90;;;;;;5109307;28;20228;-75
2023/04/09 11:35:35;;;;;;;1.13;1.00;;;20.90;99.90;;;;;;5111920;28;20291;-75
2023/04/09 11:38:06;;;;;;;0.98;0.98;;;21.10;99.90;;;;;;5110851;28;20201;-75
2023/04/09 11:40:34;;;;;;;1.70;1.25;;;21.00;99.90;;;;;;5111245;28;20233;-75
2023/04/09 11:43:01;;;;;;;1.70;0.93;;;21.10;99.90;;;;;;5110911;28;20216;-75
2023/04/09 11:45:30;;;;;;;1.23;1.23;;;21.00;99.90;;;;;;5110742;28;20201;-76
2023/04/09 11:47:57;;;;;;;1.23;1.15;;;21.40;99.90;;;;;;5110003;28;20725;-76
2023/04/09 11:50:26;;;;;;;0.57;0.57;;;21.60;99.90;;;;;;5111319;28;20200;-75
2023/04/09 11:52:53;;;;;;;1.58;1.25;;;22.20;99.90;;;;;;5107994;28;20256;-74
2023/04/09 11:55:24;;;;;;;1.27;0.90;;;22.70;99.90;;;;;;5110375;28;20304;-74
2023/04/09 11:57:53;;;;;;;1.27;1.17;;;22.70;99.90;;;;;;5111629;28;20266;-76
2023/04/09 12:00:20;;;;;;;1.10;1.00;;;22.80;99.90;;;;;;5110596;28;20207;-76
2023/04/09 12:02:49;;;;;;;1.00;1.00;;;21.90;99.90;;;;;;5111239;28;20247;-77
2023/04/09 12:05:22;;;;;;;1.20;0.98;;;21.90;99.90;;;;;;5110790;28;20208;-73
2023/04/09 12:07:51;;;;;;;0.93;0.90;;;21.40;99.90;;;;;;5111011;28;20197;-75
2023/04/09 12:10:18;;;;;;;0.75;0.73;;;21.20;99.90;;;;;;5108274;28;20248;-71
2023/04/09 12:12:47;;;;;;;1.45;1.40;;;21.50;99.90;;;;;;5114957;28;20369;-73
2023/04/09 12:15:25;;;;;;;1.45;0.90;;;21.40;99.90;;;;;;5110570;28;20235;-73
2023/04/09 12:17:55;;;;;;;0.80;0.77;;;21.20;99.90;;;;;;5111374;28;20615;-73
2023/04/09 12:20:29;;;;;;;1.33;1.20;;;21.20;99.90;;;;;;5111236;28;20197;-74
2023/04/09 12:23:00;;;;;;;1.20;1.10;;;21.60;99.90;;;;;;5110733;28;20208;-73
2023/04/09 12:25:27;;;;;;;0.73;0.73;;;21.60;99.90;;;;;;5110944;28;20201;-73
2023/04/09 12:27:54;;;;;;;1.05;0.90;;;21.80;99.90;;;;;;5110925;28;20209;-74
2023/04/09 12:30:21;;;;;;;1.40;1.25;;;22.10;99.90;;;;;;5110715;28;20205;-74
2023/04/09 12:32:48;;;;;;;2.17;1.00;;;22.40;99.90;;;;;;5111986;28;20680;-75
2023/04/09 12:35:15;;;;;;;1.00;0.90;;;22.60;99.90;;;;;;5110245;28;20289;-74
2023/04/09 12:37:42;;;;;;;1.38;1.27;;;22.80;99.90;;;;;;5122803;27;20669;-74
2023/04/09 12:40:12;;;;;;;0.73;0.73;;;22.70;99.90;;;;;;5113769;28;20251;-74
2023/04/09 12:42:40;;;;;;;1.25;1.08;;;22.50;99.90;;;;;;5114023;27;20303;-72
2023/04/09 12:45:08;;;;;;;0.90;0.90;;;22.30;99.90;;;;;;5122786;27;20279;-72
2023/04/09 12:47:35;;;;;;;0.75;0.75;;;21.90;99.90;;;;;;5128400;27;20232;-74
2023/04/09 12:50:02;;;;;;;1.25;1.00;;;22.20;99.90;;;;;;5105017;28;20256;-74
2023/04/09 12:52:29;;;;;;;0.80;0.80;;;22.20;99.90;;;;;;5112312;28;20236;-75
2023/04/09 12:54:56;;;;;;;1.88;1.00;;;22.20;99.90;;;;;;5116470;27;20199;-73
2023/04/09 12:57:25;;;;;;;1.63;1.08;;;22.30;99.90;;;;;;5123434;27;20220;-73